Time;durP1;ratioP1;P1;durP2;ratioP2;P2;SDS_P1;SDS_P2;PMS_P1;PMS_P2;Temp;Humidity;BMP_temperature;BMP_pressure;BME280_temperature;BME280_humidity;BME280_pressure;Samples;Min_cycle;Max_cycle;Signal;HPM_P1;HPM_P2
2022/03/24 00:02:11;;;;;;;16.65;12.82;;;5.90;40.10;;;;;;5056201;28;20229;-65
2022/03/24 00:04:38;;;;;;;18.75;10.90;;;5.80;40.40;;;;;;5052349;28;20649;-64
2022/03/24 00:07:06;;;;;;;16.48;10.60;;;5.70;40.90;;;;;;5055083;28;20206;-64
2022/03/24 00:09:33;;;;;;;16.40;11.00;;;5.70;40.60;;;;;;5056720;28;20207;-64
2022/03/24 00:12:00;;;;;;;18.23;11.48;;;5.70;40.60;;;;;;5052485;28;20654;-65
2022/03/24 00:14:27;;;;;;;15.68;10.68;;;5.50;40.50;;;;;;5053846;28;20252;-64
2022/03/24 00:16:55;;;;;;;16.08;9.90;;;5.40;40.90;;;;;;5052979;28;20289;-64
2022/03/24 00:19:22;;;;;;;15.93;10.93;;;5.40;40.90;;;;;;5053022;28;20229;-63
2022/03/24 00:21:50;;;;;;;18.35;12.98;;;5.30;41.00;;;;;;5054498;28;20225;-64
2022/03/24 00:24:19;;;;;;;17.33;10.98;;;5.40;41.50;;;;;;5054886;28;20229;-64
2022/03/24 00:26:46;;;;;;;17.83;11.30;;;5.30;41.80;;;;;;5051641;28;20214;-63
2022/03/24 00:29:13;;;;;;;23.38;11.65;;;5.30;42.10;;;;;;5055363;28;20198;-64
2022/03/24 00:31:41;;;;;;;24.70;12.32;;;5.20;42.90;;;;;;5050661;28;20199;-66
2022/03/24 00:34:10;;;;;;;22.95;14.07;;;5.20;42.20;;;;;;5051731;28;20264;-64
2022/03/24 00:36:37;;;;;;;21.80;13.80;;;5.20;42.80;;;;;;5053283;28;20264;-63
2022/03/24 00:39:05;;;;;;;24.05;13.10;;;5.30;43.30;;;;;;5051750;28;20225;-64
2022/03/24 00:41:32;;;;;;;17.15;12.15;;;5.30;43.20;;;;;;5049358;28;20290;-64
2022/03/24 00:44:00;;;;;;;21.33;12.25;;;5.30;42.80;;;;;;5048231;28;20271;-64
2022/03/24 00:46:28;;;;;;;18.38;10.90;;;5.20;42.40;;;;;;5050252;28;20202;-63
2022/03/24 00:48:55;;;;;;;23.00;13.52;;;5.20;42.40;;;;;;5054672;28;20201;-64
2022/03/24 00:51:26;;;;;;;35.20;15.73;;;5.10;43.50;;;;;;5054751;28;20205;-64
2022/03/24 00:53:53;;;;;;;29.65;15.10;;;5.10;43.60;;;;;;5052774;28;20206;-63
2022/03/24 00:56:21;;;;;;;24.35;14.80;;;5.00;43.40;;;;;;5049417;28;20213;-64
2022/03/24 00:58:49;;;;;;;27.00;15.10;;;5.00;43.40;;;;;;5052751;28;21623;-64
2022/03/24 01:01:16;;;;;;;22.85;12.23;;;5.00;43.60;;;;;;5053251;28;20186;-64
2022/03/24 01:03:44;;;;;;;17.60;12.23;;;5.00;43.50;;;;;;5053943;28;20206;-65
2022/03/24 01:06:16;;;;;;;18.55;10.82;;;4.90;43.70;;;;;;5055657;28;20193;-64
2022/03/24 01:08:45;;;;;;;19.55;11.75;;;4.90;44.00;;;;;;5052961;28;20189;-63
2022/03/24 01:11:13;;;;;;;18.92;10.60;;;4.90;43.50;;;;;;5054564;28;20201;-64
2022/03/24 01:13:40;;;;;;;19.92;11.48;;;4.90;44.30;;;;;;5063188;28;20205;-63
2022/03/24 01:16:09;;;;;;;22.42;12.77;;;4.80;44.00;;;;;;5050952;28;20194;-64
2022/03/24 01:18:38;;;;;;;17.92;11.88;;;4.80;43.70;;;;;;5056024;28;20372;-63
2022/03/24 01:21:05;;;;;;;16.92;10.60;;;4.70;43.50;;;;;;5060849;28;20259;-64
2022/03/24 01:23:33;;;;;;;18.00;11.00;;;4.70;43.70;;;;;;5060434;28;20198;-64
2022/03/24 01:26:05;;;;;;;18.77;11.75;;;4.70;43.90;;;;;;5059751;28;20252;-64
2022/03/24 01:28:32;;;;;;;16.90;9.38;;;4.60;43.50;;;;;;5060106;28;22051;-63
2022/03/24 01:30:59;;;;;;;20.23;11.73;;;4.50;43.30;;;;;;5061777;28;20216;-64
2022/03/24 01:33:26;;;;;;;17.05;11.15;;;4.50;43.50;;;;;;5057569;28;20222;-63
2022/03/24 01:35:53;;;;;;;22.75;10.52;;;4.40;43.90;;;;;;5059255;28;20202;-64
2022/03/24 01:38:23;;;;;;;22.20;10.93;;;4.30;44.70;;;;;;5057794;28;20218;-64
2022/03/24 01:40:50;;;;;;;31.65;14.48;;;4.30;44.70;;;;;;5059763;28;20210;-64
2022/03/24 01:43:19;;;;;;;28.38;14.40;;;4.20;45.20;;;;;;5059256;28;20226;-63
2022/03/24 01:45:46;;;;;;;20.70;12.40;;;4.30;46.30;;;;;;5056863;28;20197;-64
2022/03/24 01:48:14;;;;;;;21.05;11.13;;;4.20;46.10;;;;;;5059162;28;20201;-64
2022/03/24 01:50:41;;;;;;;15.60;10.00;;;4.20;45.70;;;;;;5060054;28;20201;-64
2022/03/24 01:53:08;;;;;;;16.45;11.85;;;4.20;45.80;;;;;;5058306;28;20197;-63
2022/03/24 01:55:39;;;;;;;16.88;10.20;;;4.20;46.10;;;;;;5058155;28;21209;-64
2022/03/24 01:58:07;;;;;;;22.83;11.88;;;4.20;46.50;;;;;;5057356;28;20206;-64
2022/03/24 02:00:36;;;;;;;14.43;10.15;;;4.20;46.90;;;;;;5058059;28;20194;-64
2022/03/24 02:03:05;;;;;;;15.80;9.30;;;4.10;46.20;;;;;;5058984;28;20601;-64
2022/03/24 02:05:32;;;;;;;16.30;10.27;;;4.10;45.70;;;;;;5057573;28;20198;-65
2022/03/24 02:08:03;;;;;;;16.33;9.90;;;4.10;45.90;;;;;;5056796;28;20216;-63
2022/03/24 02:10:31;;;;;;;23.60;9.73;;;4.10;46.10;;;;;;5054986;28;20213;-63
2022/03/24 02:12:58;;;;;;;14.00;10.10;;;4.10;45.60;;;;;;5057978;28;20657;-64
2022/03/24 02:15:25;;;;;;;12.73;7.80;;;4.00;45.80;;;;;;5052400;28;20248;-64
2022/03/24 02:17:54;;;;;;;17.00;8.95;;;3.90;45.70;;;;;;5054959;28;20205;-63
2022/03/24 02:20:21;;;;;;;17.08;10.65;;;3.80;46.30;;;;;;5055431;28;20214;-63
2022/03/24 02:22:51;;;;;;;14.40;9.43;;;3.80;46.70;;;;;;5053510;28;20690;-64
2022/03/24 02:25:18;;;;;;;18.52;10.43;;;3.70;46.50;;;;;;5054390;28;20193;-63
2022/03/24 02:27:47;;;;;;;13.70;8.68;;;3.70;46.30;;;;;;5053336;28;20670;-63
2022/03/24 02:30:14;;;;;;;13.05;9.07;;;3.60;46.10;;;;;;5053685;28;20202;-63
2022/03/24 02:32:42;;;;;;;19.05;8.35;;;3.60;46.30;;;;;;5055979;28;20679;-65
2022/03/24 02:35:10;;;;;;;17.25;8.13;;;3.50;46.30;;;;;;5055636;28;20195;-63
2022/03/24 02:37:37;;;;;;;14.98;8.88;;;3.50;46.20;;;;;;5054096;28;20244;-63
2022/03/24 02:40:06;;;;;;;11.02;8.25;;;3.40;46.40;;;;;;5052640;28;20276;-64
2022/03/24 02:42:34;;;;;;;13.10;8.25;;;3.40;46.80;;;;;;5055788;28;20614;-63
2022/03/24 02:45:04;;;;;;;12.48;7.68;;;3.40;47.40;;;;;;5058253;28;20236;-64
2022/03/24 02:47:31;;;;;;;15.13;8.90;;;3.30;46.40;;;;;;5055877;28;20202;-63
2022/03/24 02:50:00;;;;;;;14.98;8.45;;;3.20;47.40;;;;;;5058551;28;20213;-64
2022/03/24 02:52:27;;;;;;;14.20;8.18;;;3.20;47.90;;;;;;5053406;28;20565;-63
2022/03/24 02:54:55;;;;;;;16.40;9.90;;;3.20;48.00;;;;;;5056788;28;20344;-64
2022/03/24 02:57:24;;;;;;;17.10;10.18;;;3.20;48.60;;;;;;5056006;28;20221;-64
2022/03/24 02:59:51;;;;;;;16.23;8.65;;;3.20;48.60;;;;;;5055546;28;20230;-64
2022/03/24 03:02:18;;;;;;;12.70;8.73;;;3.30;48.80;;;;;;5056762;28;20198;-63
2022/03/24 03:04:51;;;;;;;11.50;7.80;;;3.30;48.40;;;;;;5055655;28;20190;-63
2022/03/24 03:07:20;;;;;;;12.20;9.07;;;3.30;49.00;;;;;;5055185;28;20224;-63
2022/03/24 03:09:47;;;;;;;12.85;8.48;;;3.30;48.30;;;;;;5055141;28;20225;-63
2022/03/24 03:12:16;;;;;;;12.20;8.20;;;3.40;48.50;;;;;;5055216;28;20272;-64
2022/03/24 03:14:46;;;;;;;13.38;7.93;;;3.30;48.90;;;;;;5054733;28;20194;-64
2022/03/24 03:17:15;;;;;;;15.73;10.05;;;3.30;49.40;;;;;;5056107;28;20182;-64
2022/03/24 03:19:43;;;;;;;17.15;7.65;;;3.30;48.10;;;;;;5055325;28;20214;-63
2022/03/24 03:22:10;;;;;;;10.05;7.00;;;3.30;47.90;;;;;;5054363;28;20190;-64
2022/03/24 03:24:39;;;;;;;15.48;8.45;;;3.30;48.10;;;;;;5057105;28;20190;-63
2022/03/24 03:27:07;;;;;;;11.93;7.90;;;3.30;47.80;;;;;;5053643;28;20202;-63
2022/03/24 03:29:34;;;;;;;15.43;8.10;;;3.30;48.30;;;;;;5055146;28;20513;-64
2022/03/24 03:32:03;;;;;;;10.90;7.22;;;3.30;49.30;;;;;;5052462;28;20198;-64
2022/03/24 03:34:31;;;;;;;12.88;7.68;;;3.20;49.10;;;;;;5054609;28;20345;-63
2022/03/24 03:37:00;;;;;;;13.98;8.10;;;3.10;50.00;;;;;;5048819;28;20252;-63
2022/03/24 03:39:27;;;;;;;13.18;7.03;;;3.10;50.50;;;;;;5057190;28;20295;-63
2022/03/24 03:41:55;;;;;;;11.00;7.20;;;3.10;50.60;;;;;;5056122;28;20191;-64
2022/03/24 03:44:23;;;;;;;12.13;8.50;;;3.10;50.10;;;;;;5064961;28;20194;-64
2022/03/24 03:46:51;;;;;;;11.30;7.60;;;3.10;50.00;;;;;;5064842;28;20221;-64
2022/03/24 03:49:21;;;;;;;10.10;7.18;;;3.00;50.20;;;;;;5067489;28;20636;-65
2022/03/24 03:51:48;;;;;;;11.93;7.95;;;3.00;50.10;;;;;;5066662;28;20284;-64
2022/03/24 03:54:15;;;;;;;18.58;7.70;;;3.10;50.40;;;;;;5064060;28;20591;-64
2022/03/24 03:56:43;;;;;;;13.45;6.85;;;3.10;49.70;;;;;;5059417;28;20197;-64
2022/03/24 03:59:10;;;;;;;16.52;8.45;;;3.10;49.20;;;;;;5067466;28;20224;-64
2022/03/24 04:01:37;;;;;;;10.90;7.18;;;3.10;49.10;;;;;;5062434;28;20197;-64
2022/03/24 04:04:07;;;;;;;11.27;6.85;;;3.00;48.80;;;;;;5067622;28;20634;-64
2022/03/24 04:06:35;;;;;;;11.80;7.00;;;3.00;49.90;;;;;;5062474;28;20189;-65
2022/03/24 04:09:02;;;;;;;10.57;6.80;;;3.00;49.70;;;;;;5067188;28;20649;-64
2022/03/24 04:11:29;;;;;;;12.35;7.22;;;3.00;49.80;;;;;;5061728;28;20198;-64
2022/03/24 04:13:56;;;;;;;13.90;8.13;;;3.00;49.70;;;;;;5066133;28;20207;-64
2022/03/24 04:16:23;;;;;;;19.95;8.32;;;3.00;49.70;;;;;;5056391;28;20237;-63
2022/03/24 04:18:50;;;;;;;12.77;7.78;;;3.00;49.90;;;;;;5066844;28;20217;-64
2022/03/24 04:21:18;;;;;;;13.35;8.20;;;3.00;50.10;;;;;;5063943;28;20289;-64
2022/03/24 04:23:46;;;;;;;9.85;7.20;;;3.00;49.60;;;;;;5066343;28;20198;-64
2022/03/24 04:26:14;;;;;;;11.80;7.63;;;2.90;49.00;;;;;;5060014;28;20202;-66
2022/03/24 04:28:43;;;;;;;13.20;8.27;;;2.80;49.00;;;;;;5057903;28;20200;-65
2022/03/24 04:31:10;;;;;;;11.50;7.93;;;2.80;48.60;;;;;;5057308;28;20225;-64
2022/03/24 04:33:38;;;;;;;15.55;7.93;;;2.80;49.20;;;;;;5065685;28;20218;-64
2022/03/24 04:36:08;;;;;;;14.57;8.00;;;2.80;49.60;;;;;;5057366;28;20230;-64
2022/03/24 04:38:36;;;;;;;9.32;6.05;;;2.80;49.60;;;;;;5059364;28;20541;-64
2022/03/24 04:41:05;;;;;;;12.88;7.93;;;2.80;49.40;;;;;;5056605;28;20272;-63
2022/03/24 04:43:34;;;;;;;10.60;6.72;;;2.80;49.40;;;;;;5064739;28;20225;-65
2022/03/24 04:46:01;;;;;;;13.32;7.28;;;2.70;49.10;;;;;;5059461;28;20190;-63
2022/03/24 04:48:28;;;;;;;12.00;7.15;;;2.70;49.20;;;;;;5063163;28;20571;-64
2022/03/24 04:50:55;;;;;;;11.15;7.10;;;2.70;49.10;;;;;;5062069;28;20601;-64
2022/03/24 04:53:22;;;;;;;12.23;8.10;;;2.70;49.00;;;;;;5063075;28;20225;-63
2022/03/24 04:55:49;;;;;;;11.10;7.30;;;2.60;49.30;;;;;;5060147;28;20251;-64
2022/03/24 04:58:17;;;;;;;12.35;7.90;;;2.50;50.70;;;;;;5060570;28;20569;-64
2022/03/24 05:00:44;;;;;;;13.48;8.43;;;2.50;51.50;;;;;;5059198;28;20621;-64
2022/03/24 05:03:11;;;;;;;10.68;8.23;;;2.50;51.20;;;;;;5062750;28;20194;-64
2022/03/24 05:05:38;;;;;;;11.48;7.57;;;2.50;51.60;;;;;;5061243;28;20237;-64
2022/03/24 05:08:06;;;;;;;14.75;7.05;;;2.50;51.10;;;;;;5060278;28;20205;-64
2022/03/24 05:10:33;;;;;;;13.32;8.40;;;2.50;50.80;;;;;;5054585;28;20185;-64
2022/03/24 05:13:00;;;;;;;11.95;7.03;;;2.40;50.40;;;;;;5060858;28;20198;-64
2022/03/24 05:15:28;;;;;;;14.75;7.80;;;2.40;50.30;;;;;;5059819;28;20198;-63
2022/03/24 05:17:55;;;;;;;12.15;7.10;;;2.40;50.30;;;;;;5060510;28;20197;-64
2022/03/24 05:20:23;;;;;;;10.48;7.10;;;2.40;50.70;;;;;;5058636;28;20210;-64
2022/03/24 05:22:50;;;;;;;12.10;9.35;;;2.40;51.30;;;;;;5060535;28;20198;-64
2022/03/24 05:25:17;;;;;;;12.85;6.30;;;2.40;51.80;;;;;;5058478;28;20217;-64
2022/03/24 05:27:45;;;;;;;9.30;5.95;;;2.50;52.50;;;;;;5058294;28;20648;-63
2022/03/24 05:30:15;;;;;;;8.25;6.40;;;2.60;52.50;;;;;;5059598;28;20196;-64
2022/03/24 05:32:44;;;;;;;12.15;7.43;;;2.60;52.00;;;;;;5057282;28;20228;-64
2022/03/24 05:35:13;;;;;;;11.15;8.05;;;2.70;52.70;;;;;;5058281;28;20190;-68
2022/03/24 05:37:40;;;;;;;10.82;7.45;;;2.70;52.70;;;;;;5056050;28;20194;-64
2022/03/24 05:40:08;;;;;;;12.93;8.27;;;2.70;52.50;;;;;;5058271;28;20301;-64
2022/03/24 05:42:35;;;;;;;9.60;7.50;;;2.70;52.60;;;;;;5055051;28;20230;-64
2022/03/24 05:45:03;;;;;;;8.07;6.07;;;2.70;52.80;;;;;;5055190;28;20231;-64
2022/03/24 05:47:31;;;;;;;10.45;6.55;;;2.80;53.00;;;;;;5053979;28;20202;-64
2022/03/24 05:49:59;;;;;;;9.43;6.32;;;2.90;52.90;;;;;;5058922;28;20717;-64
2022/03/24 05:52:26;;;;;;;10.88;6.60;;;3.00;53.50;;;;;;5054945;28;20193;-64
2022/03/24 05:54:53;;;;;;;14.80;7.30;;;3.10;53.40;;;;;;5055372;28;20197;-63
2022/03/24 05:57:20;;;;;;;10.35;8.02;;;3.20;53.20;;;;;;5054354;28;20235;-64
2022/03/24 05:59:48;;;;;;;13.90;7.10;;;3.30;53.50;;;;;;5056216;28;20218;-65
2022/03/24 06:02:15;;;;;;;12.38;7.72;;;3.40;53.30;;;;;;5055938;28;20252;-64
2022/03/24 06:04:47;;;;;;;12.00;8.40;;;3.40;53.20;;;;;;5055287;28;20194;-65
2022/03/24 06:07:16;;;;;;;14.55;7.70;;;3.50;52.90;;;;;;5053460;28;20695;-64
2022/03/24 06:09:44;;;;;;;10.75;8.30;;;3.70;52.90;;;;;;5056377;28;20202;-64
2022/03/24 06:12:16;;;;;;;17.05;9.57;;;3.80;53.10;;;;;;5049963;28;20240;-64
2022/03/24 06:14:43;;;;;;;12.40;7.65;;;;;;;;;;5051667;28;20281;-64
2022/03/24 06:17:10;;;;;;;13.80;9.60;;;4.00;53.00;;;;;;5051601;28;20199;-65
2022/03/24 06:19:39;;;;;;;11.15;8.07;;;4.30;52.70;;;;;;5054795;28;20196;-65
2022/03/24 06:22:07;;;;;;;12.57;7.72;;;4.40;52.70;;;;;;5052888;28;20234;-63
2022/03/24 06:24:36;;;;;;;14.18;7.80;;;4.50;51.50;;;;;;5052419;28;20313;-64
2022/03/24 06:27:03;;;;;;;10.88;7.03;;;4.50;51.10;;;;;;5054722;28;20195;-64
2022/03/24 06:29:30;;;;;;;16.40;7.45;;;4.60;51.60;;;;;;5055403;28;20714;-63
2022/03/24 06:31:57;;;;;;;19.77;8.15;;;4.70;50.80;;;;;;5054269;28;20186;-64
2022/03/24 06:34:25;;;;;;;12.18;7.30;;;4.90;50.60;;;;;;5055466;28;20335;-64
2022/03/24 06:36:52;;;;;;;18.52;9.23;;;5.00;50.40;;;;;;5052555;28;20197;-64
2022/03/24 06:39:19;;;;;;;13.23;8.23;;;5.00;50.20;;;;;;5054838;28;20634;-64
2022/03/24 06:41:48;;;;;;;12.07;7.47;;;5.20;50.10;;;;;;5056174;28;20221;-64
2022/03/24 06:44:15;;;;;;;17.42;10.07;;;5.40;51.20;;;;;;5053217;28;20186;-63
2022/03/24 06:46:42;;;;;;;14.98;7.65;;;5.60;51.00;;;;;;5052747;28;20190;-64
2022/03/24 06:49:09;;;;;;;12.55;8.52;;;5.80;50.90;;;;;;5054004;28;20190;-64
2022/03/24 06:51:36;;;;;;;12.15;8.68;;;6.00;51.10;;;;;;5050169;28;20209;-64
2022/03/24 06:54:04;;;;;;;11.48;7.13;;;6.30;51.20;;;;;;5052920;28;20205;-64
2022/03/24 06:56:31;;;;;;;11.15;7.80;;;6.60;50.90;;;;;;5052040;28;20199;-65
2022/03/24 06:59:00;;;;;;;17.42;7.40;;;6.90;50.60;;;;;;5051791;28;20202;-64
2022/03/24 07:01:27;;;;;;;13.27;7.00;;;7.40;48.50;;;;;;5053473;28;20231;-64
2022/03/24 07:03:54;;;;;;;13.80;7.22;;;7.80;48.50;;;;;;5053308;28;20236;-64
2022/03/24 07:06:21;;;;;;;12.60;8.10;;;8.30;48.70;;;;;;5051201;28;20194;-65
2022/03/24 07:08:48;;;;;;;15.07;10.20;;;8.90;47.90;;;;;;5049697;28;20291;-64
2022/03/24 07:11:16;;;;;;;16.88;9.70;;;9.60;46.80;;;;;;5049513;28;20194;-65
2022/03/24 07:13:43;;;;;;;13.95;10.60;;;10.50;46.20;;;;;;5051041;28;20522;-66
2022/03/24 07:16:11;;;;;;;16.33;10.02;;;11.50;44.00;;;;;;5050600;28;20281;-65
2022/03/24 07:18:38;;;;;;;13.02;8.85;;;12.60;41.10;;;;;;5048256;28;20196;-64
2022/03/24 07:21:06;;;;;;;15.50;8.35;;;13.90;39.70;;;;;;5051481;28;20222;-64
2022/03/24 07:23:33;;;;;;;10.18;7.88;;;15.80;39.40;;;;;;5053356;28;21227;-65
2022/03/24 07:26:00;;;;;;;10.68;8.80;;;18.10;34.40;;;;;;5058925;28;20194;-65
2022/03/24 07:28:27;;;;;;;12.05;8.63;;;20.10;31.10;;;;;;5055218;28;20195;-65
2022/03/24 07:30:54;;;;;;;9.90;8.37;;;22.10;28.50;;;;;;5058004;28;20238;-65
2022/03/24 07:33:23;;;;;;;11.13;8.77;;;23.60;26.30;;;;;;5059824;28;20827;-65
2022/03/24 07:35:51;;;;;;;13.10;8.63;;;25.00;23.90;;;;;;5051609;28;20436;-66
2022/03/24 07:38:18;;;;;;;10.43;6.97;;;26.10;22.10;;;;;;5053105;28;20444;-65
2022/03/24 07:40:45;;;;;;;11.10;7.80;;;27.50;20.90;;;;;;5052963;28;20580;-65
2022/03/24 07:43:12;;;;;;;9.63;7.23;;;28.90;19.90;;;;;;5052705;28;21021;-65
2022/03/24 07:45:39;;;;;;;7.63;6.80;;;30.00;17.00;;;;;;5054235;28;20440;-66
2022/03/24 07:48:12;;;;;;;8.07;6.67;;;30.70;15.80;;;;;;5053217;28;20853;-65
2022/03/24 07:50:42;;;;;;;9.87;7.20;;;31.70;14.50;;;;;;5052464;28;20440;-65
2022/03/24 07:53:44;;;;;;;7.87;6.30;;;32.30;13.20;;;;;;5054846;28;20432;-65
2022/03/24 07:56:11;;;;;;;7.90;7.07;;;33.40;13.60;;;;;;5010534;28;20477;-66
2022/03/24 07:58:38;;;;;;;7.07;5.80;;;34.50;12.40;;;;;;5044483;28;20484;-65
2022/03/24 08:01:06;;;;;;;7.13;5.63;;;35.30;11.80;;;;;;5052472;28;20559;-66
2022/03/24 08:03:34;;;;;;;12.10;6.23;;;36.00;12.00;;;;;;5055174;28;20429;-63
2022/03/24 08:06:03;;;;;;;7.03;6.00;;;36.90;11.30;;;;;;5052916;28;20447;-63
2022/03/24 08:08:30;;;;;;;5.83;5.07;;;37.70;10.50;;;;;;5052238;28;20441;-64
2022/03/24 08:10:58;;;;;;;6.77;6.00;;;38.40;9.90;;;;;;5053104;28;20483;-64
2022/03/24 08:13:25;;;;;;;8.00;6.20;;;39.10;9.80;;;;;;5052121;28;20476;-63
2022/03/24 08:15:54;;;;;;;10.53;6.53;;;39.80;9.00;;;;;;5052015;28;20480;-66
2022/03/24 08:18:21;;;;;;;9.40;6.67;;;40.50;9.10;;;;;;5052256;28;20444;-64
2022/03/24 08:20:49;;;;;;;8.37;7.20;;;41.20;8.50;;;;;;5052079;28;20495;-64
2022/03/24 08:23:17;;;;;;;8.33;6.83;;;41.70;7.50;;;;;;5051667;28;20472;-64
2022/03/24 08:25:45;;;;;;;6.60;5.90;;;42.10;7.00;;;;;;5051580;28;20463;-65
2022/03/24 08:28:13;;;;;;;13.20;8.27;;;42.50;7.10;;;;;;5051611;28;20936;-64
2022/03/24 08:30:41;;;;;;;11.30;6.83;;;43.10;7.20;;;;;;5051429;28;21327;-65
2022/03/24 08:33:10;;;;;;;8.40;7.60;;;43.60;6.40;;;;;;5055172;28;20591;-64
2022/03/24 08:35:37;;;;;;;8.50;7.70;;;43.90;5.20;;;;;;5051194;28;20445;-64
2022/03/24 08:38:05;;;;;;;7.73;7.03;;;43.90;5.10;;;;;;5051700;28;20989;-63
2022/03/24 08:40:33;;;;;;;8.50;6.90;;;44.00;4.70;;;;;;5050860;28;20441;-70
2022/03/24 08:43:00;;;;;;;7.83;6.90;;;44.00;5.20;;;;;;5051200;28;20440;-65
2022/03/24 08:45:27;;;;;;;8.83;7.93;;;44.50;5.30;;;;;;5047428;28;20441;-64
2022/03/24 08:47:54;;;;;;;9.07;8.17;;;44.80;4.80;;;;;;5051307;28;20491;-64
2022/03/24 08:50:23;;;;;;;8.00;7.30;;;45.40;4.70;;;;;;5052170;28;20848;-64
2022/03/24 08:52:50;;;;;;;8.53;7.73;;;45.90;4.40;;;;;;5050600;28;20441;-64
2022/03/24 08:55:18;;;;;;;9.03;8.23;;;46.20;4.40;;;;;;5055874;28;20436;-64
2022/03/24 08:57:47;;;;;;;9.03;8.23;;;46.70;4.40;;;;;;5051827;28;20440;-64
2022/03/24 09:00:17;;;;;;;9.60;8.70;;;47.30;4.00;;;;;;5051089;28;20444;-65
2022/03/24 09:02:45;;;;;;;9.70;8.70;;;47.80;3.30;;;;;;5051012;28;20441;-64
2022/03/24 09:05:13;;;;;;;9.93;9.03;;;47.80;3.40;;;;;;5051329;28;20803;-64
2022/03/24 09:07:41;;;;;;;14.43;8.90;;;48.20;3.60;;;;;;5051112;28;20437;-64
2022/03/24 09:10:10;;;;;;;9.93;9.03;;;48.60;3.40;;;;;;5050983;28;20474;-65
2022/03/24 09:12:39;;;;;;;10.57;9.57;;;48.90;3.40;;;;;;5051096;28;20492;-64
2022/03/24 09:15:10;;;;;;;11.60;10.50;;;49.10;2.50;;;;;;5050643;28;20433;-64
2022/03/24 09:17:38;;;;;;;11.17;10.10;;;49.10;2.80;;;;;;5050429;28;20978;-66
2022/03/24 09:20:09;;;;;;;10.57;9.70;;;49.40;2.80;;;;;;5051592;28;20432;-64
2022/03/24 09:22:36;;;;;;;11.43;10.43;;;49.80;2.50;;;;;;5050866;28;20472;-71
2022/03/24 09:25:04;;;;;;;11.37;10.27;;;50.00;2.90;;;;;;5050660;28;20439;-66
2022/03/24 09:27:32;;;;;;;10.33;9.37;;;50.20;2.50;;;;;;5045864;28;20437;-64
2022/03/24 09:29:59;;;;;;;10.03;9.13;;;50.40;2.20;;;;;;5050697;28;20522;-64
2022/03/24 09:32:27;;;;;;;9.00;8.07;;;50.50;2.50;;;;;;5050458;28;20476;-64
2022/03/24 09:34:55;;;;;;;11.90;10.90;;;51.10;2.60;;;;;;5050373;28;20919;-64
2022/03/24 09:37:25;;;;;;;11.20;10.00;;;51.60;2.50;;;;;;5050515;28;20437;-64
2022/03/24 09:39:52;;;;;;;9.57;8.70;;;52.00;2.60;;;;;;5050564;28;20460;-65
2022/03/24 09:42:21;;;;;;;10.73;9.80;;;52.40;1.80;;;;;;5050344;28;20433;-66
2022/03/24 09:44:49;;;;;;;11.10;10.10;;;52.40;2.10;;;;;;5046498;28;20432;-64
2022/03/24 09:47:17;;;;;;;10.30;9.30;;;52.80;2.30;;;;;;5050321;28;20536;-64
2022/03/24 09:49:45;;;;;;;12.13;9.50;;;53.00;1.80;;;;;;5050665;28;20445;-64
2022/03/24 09:52:13;;;;;;;9.30;8.60;;;52.80;2.00;;;;;;5052313;28;20514;-64
2022/03/24 09:54:42;;;;;;;9.87;9.07;;;52.90;2.30;;;;;;5054758;28;20432;-67
2022/03/24 09:57:10;;;;;;;10.43;9.43;;;53.40;2.00;;;;;;5054670;28;20433;-65
2022/03/24 09:59:37;;;;;;;9.97;9.00;;;53.80;2.10;;;;;;5054606;28;20518;-65
2022/03/24 10:02:07;;;;;;;10.17;9.17;;;54.20;1.50;;;;;;5057404;28;20524;-65
2022/03/24 10:04:48;;;;;;;9.83;8.93;;;54.50;1.90;;;;;;5054497;28;21382;-64
2022/03/24 10:07:17;;;;;;;9.40;8.60;;;54.80;1.60;;;;;;5058502;28;20451;-65
2022/03/24 10:09:45;;;;;;;8.40;7.70;;;55.10;1.90;;;;;;5054573;28;20441;-65
2022/03/24 10:12:21;;;;;;;10.00;8.40;;;55.50;1.60;;;;;;5054297;28;20484;-65
2022/03/24 10:14:59;;;;;;;8.90;8.10;;;55.70;1.40;;;;;;5050646;28;20432;-64
2022/03/24 10:17:29;;;;;;;9.70;8.17;;;56.00;1.30;;;;;;5053028;28;20464;-66
2022/03/24 10:19:59;;;;;;;11.93;9.00;;;56.20;1.10;;;;;;5049720;28;20443;-64
2022/03/24 10:22:26;;;;;;;8.20;7.50;;;56.30;1.40;;;;;;5056194;28;20922;-66
2022/03/24 10:24:53;;;;;;;8.87;7.50;;;56.60;1.30;;;;;;5055855;28;20432;-64
2022/03/24 10:27:28;;;;;;;11.97;8.73;;;56.60;1.00;;;;;;5053849;28;20878;-65
2022/03/24 10:29:56;;;;;;;8.63;7.60;;;56.50;1.20;;;;;;5054174;28;20455;-64
2022/03/24 10:32:29;;;;;;;9.50;8.63;;;56.40;1.00;;;;;;5054709;28;20437;-64
2022/03/24 10:34:59;;;;;;;8.83;8.13;;;56.00;1.00;;;;;;5053908;28;20501;-64
2022/03/24 10:37:30;;;;;;;10.00;8.63;;;55.90;1.10;;;;;;5053587;28;20819;-64
2022/03/24 10:39:59;;;;;;;8.30;7.70;;;55.90;1.40;;;;;;5053743;28;20437;-65
2022/03/24 10:42:29;;;;;;;8.53;7.50;;;56.00;1.40;;;;;;5049883;28;20477;-64
2022/03/24 10:45:15;;;;;;;8.63;7.83;;;56.20;1.30;;;;;;5053947;28;20436;-64
2022/03/24 10:47:50;;;;;;;8.90;8.10;;;56.60;1.00;;;;;;5054059;28;20447;-64
2022/03/24 10:50:25;;;;;;;8.13;7.33;;;56.60;1.00;;;;;;5053647;28;20474;-65
2022/03/24 10:52:53;;;;;;;8.00;7.40;;;56.60;1.00;;;;;;5057242;28;20443;-64
2022/03/24 10:55:30;;;;;;;8.33;7.63;;;56.60;1.00;;;;;;5053692;28;20498;-64
2022/03/24 10:57:58;;;;;;;8.20;7.50;;;56.60;1.00;;;;;;5049442;28;20527;-64
2022/03/24 11:00:25;;;;;;;7.47;6.87;;;56.70;1.00;;;;;;5053442;28;20527;-64
2022/03/24 11:02:52;;;;;;;8.63;7.17;;;56.60;1.00;;;;;;5052787;28;20472;-64
2022/03/24 11:05:20;;;;;;;7.40;6.90;;;56.90;1.00;;;;;;5052551;28;20550;-66
2022/03/24 11:07:53;;;;;;;7.97;7.27;;;57.10;1.00;;;;;;5053587;28;20440;-64
2022/03/24 11:10:22;;;;;;;7.80;7.20;;;56.90;1.00;;;;;;5053520;28;20868;-64
2022/03/24 11:12:51;;;;;;;7.43;6.87;;;57.00;1.00;;;;;;5052786;28;20441;-65
2022/03/24 11:15:27;;;;;;;7.43;6.73;;;57.00;1.00;;;;;;5051602;28;20441;-64
2022/03/24 11:17:54;;;;;;;7.40;6.70;;;56.70;1.00;;;;;;5053415;28;20533;-63
2022/03/24 11:20:27;;;;;;;7.60;7.00;;;56.90;1.00;;;;;;5052608;28;20491;-65
2022/03/24 11:22:59;;;;;;;8.40;7.80;;;56.90;1.00;;;;;;5050060;28;20534;-63
2022/03/24 11:25:28;;;;;;;7.27;6.67;;;56.90;1.00;;;;;;5053643;28;20916;-65
2022/03/24 11:27:56;;;;;;;7.87;7.27;;;56.90;1.00;;;;;;5053416;28;20476;-63
2022/03/24 11:30:24;;;;;;;8.87;7.97;;;56.90;1.00;;;;;;5052826;28;20473;-63
2022/03/24 11:32:54;;;;;;;8.10;7.40;;;56.70;1.00;;;;;;5053300;28;20484;-63
2022/03/24 11:35:22;;;;;;;8.00;7.37;;;56.60;1.00;;;;;;5052733;28;20443;-63
2022/03/24 11:37:50;;;;;;;7.83;7.00;;;56.70;1.00;;;;;;5055778;28;20470;-63
2022/03/24 11:40:20;;;;;;;8.50;7.70;;;56.60;1.00;;;;;;5053311;28;20437;-63
2022/03/24 11:42:52;;;;;;;6.30;5.80;;;56.80;1.00;;;;;;5053548;28;20555;-63
2022/03/24 11:45:25;;;;;;;8.60;7.80;;;56.30;1.00;;;;;;5050373;28;20508;-63
2022/03/24 11:47:56;;;;;;;6.80;6.20;;;56.20;1.00;;;;;;5053136;28;20828;-63
2022/03/24 11:50:55;;;;;;;7.00;6.40;;;56.30;1.00;;;;;;5052679;28;20464;-63
2022/03/24 11:53:39;;;;;;;7.20;6.50;;;56.60;1.00;;;;;;5053874;28;20451;-62
2022/03/24 11:56:14;;;;;;;7.37;6.67;;;56.50;1.00;;;;;;5051655;28;20890;-63
2022/03/24 11:59:20;;;;;;;6.70;6.13;;;56.40;1.00;;;;;;5054500;28;20499;-64
2022/03/24 12:02:16;;;;;;;6.97;6.37;;;56.10;1.00;;;;;;5051006;28;20874;-63
2022/03/24 12:04:45;;;;;;;7.30;6.67;;;55.80;1.00;;;;;;5051098;28;20762;-63
2022/03/24 12:07:16;;;;;;;6.13;5.63;;;55.60;1.00;;;;;;5053677;28;20445;-63
2022/03/24 12:09:56;;;;;;;7.60;7.00;;;55.20;1.00;;;;;;5054894;28;20461;-64
2022/03/24 12:12:26;;;;;;;6.93;6.40;;;55.00;1.00;;;;;;5051070;28;20437;-64
2022/03/24 12:14:54;;;;;;;6.57;6.00;;;54.90;1.00;;;;;;5053390;28;20463;-63
2022/03/24 12:17:25;;;;;;;6.33;5.80;;;54.70;1.00;;;;;;5053246;28;20477;-64
2022/03/24 12:19:54;;;;;;;6.50;6.00;;;54.80;1.00;;;;;;5053620;28;20445;-62
2022/03/24 12:22:38;;;;;;;7.40;6.80;;;55.00;1.00;;;;;;5053032;28;20519;-62
2022/03/24 12:25:28;;;;;;;7.93;7.33;;;54.80;1.00;;;;;;5048505;28;20911;-63
2022/03/24 12:28:03;;;;;;;7.23;6.57;;;54.50;1.00;;;;;;5048470;28;20503;-62
2022/03/24 12:30:43;;;;;;;7.23;6.63;;;54.20;1.00;;;;;;5052289;28;20444;-62
2022/03/24 12:33:13;;;;;;;7.70;7.00;;;53.60;1.00;;;;;;5049778;28;20465;-64
2022/03/24 12:35:44;;;;;;;5.33;4.70;;;53.10;1.00;;;;;;5051928;28;20461;-63
2022/03/24 12:38:28;;;;;;;7.03;6.33;;;52.80;1.00;;;;;;5051203;28;20430;-64
2022/03/24 12:41:20;;;;;;;6.50;5.90;;;52.50;1.00;;;;;;5051905;28;20436;-62
2022/03/24 12:43:53;;;;;;;6.50;5.63;;;52.00;1.00;;;;;;5052807;28;20481;-62
2022/03/24 12:46:26;;;;;;;7.53;6.93;;;51.50;1.00;;;;;;5051294;28;20437;-69
2022/03/24 12:48:54;;;;;;;6.50;6.00;;;51.40;1.00;;;;;;5054286;28;20436;-62
2022/03/24 12:51:23;;;;;;;6.90;6.20;;;51.30;1.00;;;;;;5052658;28;20440;-64
2022/03/24 12:53:53;;;;;;;6.73;6.13;;;50.50;1.00;;;;;;5051428;28;20892;-62
2022/03/24 12:56:22;;;;;;;7.87;6.67;;;49.20;1.00;;;;;;5051278;28;20433;-62
2022/03/24 12:58:54;;;;;;;6.50;5.90;;;47.90;1.00;;;;;;5054649;28;20488;-64